Batamaj, Russia
Current Conditions -  °F | °C
As of 2:00 PM on Sunday 21 Dec 2014 (Local Time) from UEEE Reporting Station
Moderate Fog Moderate Fog  
Wind Chill: -68°   Ceiling: 20000
Heat Index: -54°   Visibility: 0.5mi
Dew Point: -63°   Wind: 4mph
Humidity: 58%   Direction: 340°NNW
Pressure: 30.18"   Gusts: NA
Location:  63.52°N, 129.48°E
Report Text: UEEE 210500Z 34002MPS 0800 FG BKN200 M48/M53 Q1022 NOSIG RMKQFE758 23490150
Loading
Personal Weather Stations






























Interactive Weather Map New forecast layout! Learn more

10-Day Weather Forecast

Advertisements
Track Severe Weather on mobile